Flight Track Log - Related Links

Times and Time Zones

All times are in EDT time to prevent confusion due to time zone crossing. See the FIV606 flight status page for this flight to view local times or setup timezone preferences in your user account.

Time Position Orientation Groundspeed Altitude Reporting Facility
EDT Latitude Longitude Course Direction KTS MPH feet Rate Location/Type
Mon 01:20:00 PM 25.3439 -88.3977 58° Northeast  Level Estimated
Mon 01:21:00 PM 25.4022 -88.2761 62° Northeast  Level Estimated
Mon 01:22:00 PM 25.4604 -88.1544 62° Northeast  Level Estimated
Mon 01:23:00 PM 25.5184 -88.0325 62° Northeast  Level Estimated
Mon 01:24:00 PM 25.5764 -87.9105 62° Northeast  Level Estimated
Mon 01:25:00 PM 25.6342 -87.7884 62° Northeast  Level Estimated
Mon 01:26:00 PM 25.6920 -87.6662 62° Northeast  Level Estimated
Mon 01:27:00 PM 25.7497 -87.5438 62° Northeast  Level Estimated
Mon 01:28:00 PM 25.8072 -87.4214 62° Northeast  Level Estimated
Mon 01:29:00 PM 25.8647 -87.2988 62° Northeast  Level Estimated
Mon 01:30:00 PM 25.9220 -87.1761 63° Northeast  Level Estimated
Mon 01:30:00 PM 25.9325 -86.1497 63° Northeast 489 563 41,000  Level Houston Center
Mon 01:31:00 PM 25.9793 -87.0533 63° Northeast  Level Estimated
Mon 01:31:03 PM 26.0361 -86.0022 52° Northeast 502 578 41,000  Level Houston Center
Mon 01:32:00 PM 26.0364 -86.9303 63° Northeast  Level Estimated
Mon 01:32:04 PM 26.1406 -85.9086 39° Northeast 484 557 41,000  Level Houston Center
Mon 01:33:00 PM 26.0934 -86.8073 63° Northeast  Level Estimated
Mon 01:33:06 PM 26.2472 -85.8186 37° Northeast 480 552 41,000  Level Houston Center
Mon 01:34:00 PM 26.1504 -86.6841 63° Northeast  Level Estimated
Mon 01:34:08 PM 26.3308 -85.6964 53° Northeast 494 568 41,000  Level Houston Center
Mon 01:35:00 PM 26.2072 -86.5608 63° Northeast  Level Estimated
Mon 01:35:10 PM 26.4133 -85.5692 54° Northeast 503 579 41,000  Level Houston Center
Mon 01:36:12 PM 26.5117 -85.4175 54° Northeast 503 579 41,000 -435 Level Houston Center
Mon 01:37:14 PM 26.5919 -85.2881 55° Northeast 506 582 40,100 -963 Descending Houston Center
Mon 01:37:33 PM 26.6150 -85.2542 53° Northeast 507 583 39,700 -1,935 Descending Miami Center
Mon 01:38:16 PM 26.6753 -85.1583 55° Northeast 513 590 38,100 -2,000 Descending Houston Center
Mon 01:38:33 PM 26.6953 -85.1231 58° Northeast 507 583 37,700 -1,870 Descending Miami Center
Mon 01:39:33 PM 26.7822 -84.9875 54° Northeast 518 596 35,700 -2,000 Descending Miami Center
Mon 01:40:33 PM 26.8689 -84.8517 54° Northeast 530 610 33,700 -2,000 Descending Miami Center
Mon 01:41:33 PM 26.9578 -84.7136 54° Northeast 530 610 31,700 -1,950 Descending Miami Center
Mon 01:42:33 PM 27.0381 -84.5794 56° Northeast 531 611 29,800 -1,900 Descending Miami Center
Mon 01:43:33 PM 27.1203 -84.4475 55° Northeast 526 605 27,900 -1,800 Descending Miami Center
Mon 01:44:33 PM 27.1997 -84.3219 55° Northeast 510 587 26,200 -1,700 Descending Miami Center
Mon 01:45:33 PM 27.2744 -84.2078 54° Northeast 481 554 24,500 -1,650 Descending Miami Center
Mon 01:46:33 PM 27.3469 -84.0889 56° Northeast 460 529 22,900 -1,633 Descending Miami Center
Mon 01:48:33 PM 27.4897 -83.8592 55° Northeast 450 518 19,600 -1,600 Descending Miami Center
Mon 01:49:33 PM 27.5597 -83.7467 55° Northeast 438 504 18,100 -1,400 Descending Miami Center
Mon 01:50:33 PM 27.6192 -83.6400 58° Northeast 425 489 16,800 -1,500 Descending Miami Center
Mon 01:51:33 PM 27.6844 -83.5386 54° Northeast 411 473 15,100 -1,550 Descending Miami Center
Mon 01:52:33 PM 27.7494 -83.4369 54° Northeast 401 461 13,700 -1,350 Descending Miami Center
Mon 01:53:33 PM 27.8083 -83.3372 56° Northeast 395 455 12,400 -1,350 Descending Miami Center
Mon 01:54:33 PM 27.8669 -83.2394 56° Northeast 383 441 11,000 -1,250 Descending Miami Center
Mon 01:55:33 PM 27.9214 -83.1392 58° Northeast 378 435 9,900 -1,200 Descending Miami Center
Mon 01:56:33 PM 27.9236 -83.0408 89° East 342 394 8,600 -1,550 Descending Miami Center
Mon 01:57:33 PM 27.8983 -82.9478 107° East 307 353 6,800 -1,878 Descending Miami Center
Mon 01:58:28 PM 27.8833 -82.8500 100° East 296 341 5,000 -1,138 Descending Tampa TRACON
Mon 01:59:29 PM 27.8500 -82.7667 114° Southeast 288 331 4,600 -835 Descending Tampa TRACON
Mon 02:00:23 PM 27.8333 -82.7000 106° East 274 315 3,400 -828 Descending Tampa TRACON
Mon 02:02:23 PM 27.8833 -82.5500 69° East 227 261 2,200 -900 Descending Tampa TRACON
Mon 02:03:23 PM 27.9333 -82.5500 360° North 147 169 700 -1,050 Descending Tampa TRACON
Mon 02:04:23 PM 27.9667 -82.5500 360° North 116 133 100 -600 Descending Tampa TRACON
Mon 02:06:00 PM 27.9755 -82.5332 19° North  Level Estimated
Mon 02:13:00 PM 27.9755 -82.5332 19° North  Level Estimated

Login

Don't have an account? Register now (free) for customized features, flight alerts, and more!